Time;durP1;ratioP1;P1;durP2;ratioP2;P2;SDS_P1;SDS_P2;PMS_P1;PMS_P2;Temp;Humidity;BMP_temperature;BMP_pressure;BME280_temperature;BME280_humidity;BME280_pressure;Samples;Min_cycle;Max_cycle;Signal;HPM_P1;HPM_P2
2021/07/15 00:02:18;;;;;;;2.47;1.67;;;15.60;95.40;;;;;;5040800;28;20462;-67
2021/07/15 00:04:51;;;;;;;2.20;1.30;;;15.50;95.00;;;;;;5051908;28;20920;-67
2021/07/15 00:07:20;;;;;;;2.40;1.80;;;15.60;95.20;;;;;;5056539;28;20433;-67
2021/07/15 00:09:49;;;;;;;2.20;1.80;;;15.60;95.10;;;;;;5037234;28;20442;-68
2021/07/15 00:12:19;;;;;;;2.57;1.87;;;15.60;95.40;;;;;;5035844;28;20465;-67
2021/07/15 00:14:46;;;;;;;2.30;1.60;;;15.60;95.20;;;;;;5051046;28;20432;-67
2021/07/15 00:17:14;;;;;;;4.07;1.57;;;15.60;94.90;;;;;;5054984;28;20499;-67
2021/07/15 00:19:41;;;;;;;2.20;1.33;;;15.60;94.60;;;;;;5038881;28;20438;-68
2021/07/15 00:22:27;;;;;;;2.43;1.40;;;15.60;94.60;;;;;;5034937;28;20442;-67
2021/07/15 00:25:05;;;;;;;3.30;1.37;;;15.60;94.60;;;;;;5053389;28;20444;-67
2021/07/15 00:27:33;;;;;;;3.43;1.67;;;15.60;94.30;;;;;;5057235;28;20441;-67
2021/07/15 00:30:09;;;;;;;3.73;1.60;;;15.60;94.20;;;;;;5039536;28;20453;-68
2021/07/15 00:32:44;;;;;;;2.10;1.40;;;15.70;94.50;;;;;;5036678;28;20469;-67
2021/07/15 00:35:21;;;;;;;2.13;1.30;;;15.70;94.70;;;;;;5053803;28;20447;-67
2021/07/15 00:37:51;;;;;;;2.77;2.17;;;15.70;94.70;;;;;;5047942;28;20481;-68
2021/07/15 00:40:25;;;;;;;3.37;1.87;;;15.80;94.70;;;;;;5035285;28;20460;-67
2021/07/15 00:43:07;;;;;;;2.90;2.47;;;15.80;94.70;;;;;;5041163;28;20437;-68
2021/07/15 00:45:36;;;;;;;5.10;1.47;;;15.80;94.80;;;;;;5034498;28;20434;-67
2021/07/15 00:48:24;;;;;;;2.90;1.77;;;15.80;94.40;;;;;;5034806;28;20545;-67
2021/07/15 00:50:57;;;;;;;2.20;1.67;;;15.80;94.30;;;;;;5035357;28;20523;-67
2021/07/15 00:53:35;;;;;;;3.27;1.80;;;15.80;94.30;;;;;;5044130;28;20437;-68
2021/07/15 00:56:32;;;;;;;2.40;1.70;;;15.80;94.10;;;;;;5036079;28;20460;-67
2021/07/15 00:58:59;;;;;;;2.10;1.30;;;15.70;93.70;;;;;;5041372;28;20531;-68
2021/07/15 01:01:31;;;;;;;2.83;1.73;;;15.70;93.90;;;;;;5055099;28;20437;-68
2021/07/15 01:03:58;;;;;;;4.10;2.10;;;15.70;94.00;;;;;;5047376;28;21002;-67
2021/07/15 01:06:39;;;;;;;3.80;1.80;;;15.60;94.00;;;;;;5054166;28;20444;-67
2021/07/15 01:09:22;;;;;;;2.30;1.40;;;15.60;94.10;;;;;;5041192;28;20433;-67
2021/07/15 01:11:59;;;;;;;2.63;1.60;;;15.50;94.10;;;;;;5035359;28;20434;-68
2021/07/15 01:14:33;;;;;;;2.70;1.80;;;15.50;94.00;;;;;;5035744;28;20438;-67
2021/07/15 01:17:04;;;;;;;2.90;1.80;;;15.60;94.20;;;;;;5044371;28;20493;-67
2021/07/15 01:20:07;;;;;;;3.53;1.80;;;15.50;94.10;;;;;;5052603;28;20445;-67
2021/07/15 01:22:37;;;;;;;3.43;1.90;;;15.50;94.30;;;;;;5033634;28;20441;-68
2021/07/15 01:25:34;;;;;;;2.50;2.00;;;15.40;94.40;;;;;;5032861;28;20442;-71
2021/07/15 01:28:11;;;;;;;2.27;1.47;;;15.40;94.80;;;;;;5033538;28;20442;-67
2021/07/15 01:30:46;;;;;;;2.10;1.37;;;15.30;94.90;;;;;;5034305;28;20468;-67
2021/07/15 01:33:23;;;;;;;2.33;1.50;;;15.30;95.00;;;;;;5034598;28;20449;-67
2021/07/15 01:36:04;;;;;;;2.37;1.40;;;15.40;94.80;;;;;;5039886;28;20475;-67
2021/07/15 01:38:34;;;;;;;3.00;1.80;;;15.30;94.90;;;;;;5055562;28;20885;-67
2021/07/15 01:41:14;;;;;;;2.83;1.77;;;15.30;95.10;;;;;;5048128;28;20507;-67
2021/07/15 01:44:01;;;;;;;3.57;2.10;;;15.40;95.10;;;;;;5035253;28;20445;-68
2021/07/15 01:46:38;;;;;;;4.50;2.30;;;15.30;95.20;;;;;;5046167;28;20433;-67
2021/07/15 01:49:15;;;;;;;6.60;2.23;;;15.30;95.30;;;;;;5055585;28;20428;-67
2021/07/15 01:51:48;;;;;;;5.13;2.17;;;15.30;95.50;;;;;;5052418;28;20778;-67
2021/07/15 01:54:53;;;;;;;2.70;1.97;;;15.30;95.60;;;;;;5053246;28;20433;-67
2021/07/15 01:57:21;;;;;;;2.90;2.00;;;15.30;95.50;;;;;;5032691;28;20484;-67
2021/07/15 01:59:58;;;;;;;3.20;1.60;;;15.30;95.60;;;;;;5034559;28;20438;-67
2021/07/15 02:02:29;;;;;;;3.10;1.97;;;15.30;95.50;;;;;;5054547;28;20459;-67
2021/07/15 02:05:17;;;;;;;3.27;1.80;;;15.30;95.50;;;;;;5053630;28;20433;-69
2021/07/15 02:07:46;;;;;;;2.87;1.60;;;15.30;95.60;;;;;;5033945;28;20437;-67
2021/07/15 02:10:29;;;;;;;2.70;1.80;;;15.30;95.70;;;;;;5033628;28;20886;-67
2021/07/15 02:13:03;;;;;;;2.63;1.87;;;15.30;95.70;;;;;;5035025;28;20450;-67
2021/07/15 02:15:31;;;;;;;2.97;1.77;;;15.30;95.90;;;;;;5035025;28;20619;-67
2021/07/15 02:18:12;;;;;;;3.37;1.90;;;15.30;96.10;;;;;;5033572;28;21007;-67
2021/07/15 02:20:42;;;;;;;2.53;1.57;;;15.30;96.30;;;;;;5035237;28;20546;-68
2021/07/15 02:23:10;;;;;;;2.40;1.60;;;15.40;96.30;;;;;;5053169;28;20460;-67
2021/07/15 02:25:49;;;;;;;3.97;1.63;;;15.30;96.20;;;;;;5050054;28;20437;-67
2021/07/15 02:28:21;;;;;;;3.30;2.13;;;15.30;96.40;;;;;;5032057;28;20441;-67
2021/07/15 02:31:01;;;;;;;2.93;2.00;;;15.30;96.50;;;;;;5035928;28;20439;-70
2021/07/15 02:33:41;;;;;;;2.83;1.80;;;15.30;96.70;;;;;;5052531;28;20986;-68
2021/07/15 02:36:08;;;;;;;2.70;1.70;;;15.30;96.60;;;;;;5050530;28;20499;-67
2021/07/15 02:38:37;;;;;;;2.63;1.80;;;15.40;96.60;;;;;;5053190;28;20492;-67
2021/07/15 02:41:04;;;;;;;2.10;1.37;;;15.40;96.70;;;;;;5038798;28;20437;-67
2021/07/15 02:43:34;;;;;;;7.70;1.70;;;15.40;96.70;;;;;;5032344;28;20437;-67
2021/07/15 02:46:03;;;;;;;2.70;1.63;;;15.40;96.90;;;;;;5045559;28;20433;-67
2021/07/15 02:48:44;;;;;;;3.70;1.80;;;15.40;97.00;;;;;;5050889;28;20445;-67
2021/07/15 02:51:13;;;;;;;3.87;1.67;;;15.50;96.70;;;;;;5036233;28;20437;-67
2021/07/15 02:53:40;;;;;;;2.83;1.43;;;15.50;96.80;;;;;;5050328;28;20483;-67
2021/07/15 02:56:20;;;;;;;2.30;1.47;;;15.40;96.90;;;;;;5032660;28;20449;-67
2021/07/15 02:59:12;;;;;;;2.70;1.70;;;15.40;97.00;;;;;;5036580;28;20877;-69
2021/07/15 03:01:51;;;;;;;2.57;1.40;;;15.50;97.00;;;;;;5053910;28;20799;-67
2021/07/15 03:04:32;;;;;;;3.73;1.70;;;15.50;96.90;;;;;;5047473;28;20438;-68
2021/07/15 03:07:07;;;;;;;2.50;1.60;;;15.50;97.10;;;;;;5033188;28;20477;-67
2021/07/15 03:09:36;;;;;;;2.40;1.30;;;15.50;97.10;;;;;;5040928;28;20448;-67
2021/07/15 03:12:23;;;;;;;3.60;1.83;;;15.50;97.10;;;;;;5050271;28;20788;-67
2021/07/15 03:14:53;;;;;;;3.13;1.60;;;15.50;97.00;;;;;;5033194;28;20532;-67
2021/07/15 03:17:34;;;;;;;3.97;1.67;;;15.50;97.00;;;;;;5036382;28;20526;-68
2021/07/15 03:20:07;;;;;;;2.30;1.90;;;15.50;97.00;;;;;;5053081;28;20468;-67
2021/07/15 03:22:49;;;;;;;2.03;1.20;;;15.50;96.80;;;;;;5046726;28;20825;-67
2021/07/15 03:25:19;;;;;;;2.43;1.77;;;15.50;97.10;;;;;;5034060;28;20886;-67
2021/07/15 03:27:56;;;;;;;4.63;1.47;;;15.50;97.00;;;;;;5033176;28;20492;-67
2021/07/15 03:30:28;;;;;;;2.70;1.57;;;15.40;96.80;;;;;;5033683;28;20524;-67
2021/07/15 03:32:58;;;;;;;3.20;1.60;;;15.40;96.80;;;;;;5039013;28;20441;-67
2021/07/15 03:35:30;;;;;;;3.37;1.63;;;15.40;96.70;;;;;;5052466;28;20998;-67
2021/07/15 03:38:03;;;;;;;3.23;2.00;;;15.30;96.80;;;;;;5045690;28;20571;-67
2021/07/15 03:40:32;;;;;;;4.47;1.60;;;15.30;96.80;;;;;;5032913;28;20442;-67
2021/07/15 03:43:05;;;;;;;2.07;1.27;;;15.30;96.80;;;;;;5039796;28;20433;-68
2021/07/15 03:45:50;;;;;;;2.87;1.40;;;15.30;96.70;;;;;;5056792;28;20894;-67
2021/07/15 03:48:42;;;;;;;2.27;1.53;;;15.20;96.70;;;;;;5047109;28;20430;-68
2021/07/15 03:51:14;;;;;;;3.17;1.70;;;15.20;96.90;;;;;;5036580;28;20803;-67
2021/07/15 03:53:47;;;;;;;3.00;1.67;;;15.20;96.90;;;;;;5047476;28;20776;-67
2021/07/15 03:56:33;;;;;;;2.30;1.50;;;15.20;97.00;;;;;;5056259;28;20796;-68
2021/07/15 03:59:01;;;;;;;5.57;1.40;;;15.20;97.20;;;;;;5042407;28;20488;-68
2021/07/15 04:01:32;;;;;;;4.60;1.77;;;15.20;97.30;;;;;;5036871;28;20457;-68
2021/07/15 04:04:01;;;;;;;2.20;1.33;;;15.30;97.10;;;;;;5035431;28;20438;-67
2021/07/15 04:06:32;;;;;;;2.50;1.57;;;15.30;97.30;;;;;;5037571;28;20995;-67
2021/07/15 04:09:34;;;;;;;4.33;1.73;;;15.40;97.10;;;;;;5056132;28;20920;-67
2021/07/15 04:12:13;;;;;;;3.30;2.30;;;15.40;97.40;;;;;;5056494;28;20445;-68
2021/07/15 04:15:03;;;;;;;3.10;1.40;;;15.40;97.30;;;;;;5056678;28;20843;-67
2021/07/15 04:17:34;;;;;;;3.67;1.17;;;15.50;97.50;;;;;;5044281;28;20847;-66
2021/07/15 04:20:07;;;;;;;2.93;1.20;;;15.50;97.70;;;;;;5035256;28;20433;-67
2021/07/15 04:22:44;;;;;;;6.60;1.33;;;15.50;97.80;;;;;;5045197;28;20441;-66
2021/07/15 04:25:40;;;;;;;2.07;1.20;;;15.60;97.70;;;;;;5055815;28;20428;-67
2021/07/15 04:28:09;;;;;;;2.77;1.37;;;15.60;97.50;;;;;;5039343;28;20990;-67
2021/07/15 04:30:40;;;;;;;4.03;1.47;;;15.70;97.40;;;;;;5035628;28;20442;-68
2021/07/15 04:33:10;;;;;;;2.50;1.70;;;15.70;97.30;;;;;;5051639;28;20441;-67
2021/07/15 04:35:56;;;;;;;1.83;1.07;;;15.80;97.30;;;;;;5054657;28;20514;-66
2021/07/15 04:38:45;;;;;;;3.00;1.20;;;15.80;97.40;;;;;;5039985;28;20587;-68
2021/07/15 04:41:16;;;;;;;2.73;1.50;;;15.80;96.90;;;;;;5034868;28;20473;-67
2021/07/15 04:43:50;;;;;;;2.80;1.17;;;15.60;96.00;;;;;;5034399;28;20430;-67
2021/07/15 04:46:20;;;;;;;2.00;1.53;;;15.50;96.50;;;;;;5034417;28;20437;-68
2021/07/15 04:48:47;;;;;;;4.13;1.80;;;15.50;96.50;;;;;;5045912;28;20865;-68
2021/07/15 04:51:19;;;;;;;2.40;1.50;;;15.50;96.50;;;;;;5032664;28;20437;-68
2021/07/15 04:53:49;;;;;;;2.60;1.47;;;15.50;96.90;;;;;;5040223;28;20433;-67
2021/07/15 04:56:17;;;;;;;2.77;1.70;;;15.50;97.10;;;;;;5053138;28;20883;-67
2021/07/15 04:58:46;;;;;;;2.83;1.60;;;15.50;97.20;;;;;;5053454;28;20483;-67
2021/07/15 05:01:13;;;;;;;3.40;1.13;;;15.50;97.40;;;;;;5054147;28;20460;-67
2021/07/15 05:03:40;;;;;;;1.97;1.13;;;15.50;97.40;;;;;;5045007;28;20437;-67
2021/07/15 05:06:09;;;;;;;2.23;1.20;;;15.50;97.40;;;;;;5033783;28;20446;-67
2021/07/15 05:08:39;;;;;;;2.90;1.33;;;15.60;97.50;;;;;;5044531;28;20507;-67
2021/07/15 05:11:08;;;;;;;2.80;1.40;;;15.60;97.70;;;;;;5043336;28;21098;-67
2021/07/15 05:13:36;;;;;;;2.87;1.50;;;15.60;97.80;;;;;;5034000;28;20532;-67
2021/07/15 05:16:08;;;;;;;3.00;1.53;;;15.60;97.80;;;;;;5041558;28;20445;-67
2021/07/15 05:18:36;;;;;;;2.30;1.43;;;15.60;97.80;;;;;;5053635;28;20847;-67
2021/07/15 05:21:08;;;;;;;3.87;2.40;;;15.60;98.10;;;;;;5044851;28;20462;-68
2021/07/15 05:23:39;;;;;;;3.80;1.97;;;15.70;98.20;;;;;;5033859;28;20500;-67
2021/07/15 05:26:12;;;;;;;4.73;2.10;;;15.80;98.10;;;;;;5035024;28;20445;-67
2021/07/15 05:28:40;;;;;;;3.00;2.10;;;15.80;98.10;;;;;;5040927;28;20911;-67
2021/07/15 05:31:08;;;;;;;2.37;1.43;;;15.90;98.20;;;;;;5053689;28;20793;-67
2021/07/15 05:33:37;;;;;;;2.13;1.07;;;15.90;97.90;;;;;;5047091;28;20500;-67
2021/07/15 05:36:09;;;;;;;2.00;1.20;;;15.90;97.70;;;;;;5033561;28;20888;-67
2021/07/15 05:38:38;;;;;;;2.20;1.40;;;15.80;97.70;;;;;;5034104;28;20983;-67
2021/07/15 05:41:05;;;;;;;3.60;1.50;;;15.70;97.20;;;;;;5033557;28;20480;-67
2021/07/15 05:43:34;;;;;;;2.33;1.30;;;15.70;97.80;;;;;;5037955;28;20518;-67
2021/07/15 05:46:01;;;;;;;1.90;1.10;;;15.60;98.20;;;;;;5053125;28;20437;-68
2021/07/15 05:48:33;;;;;;;2.90;1.27;;;15.70;98.80;;;;;;5053465;28;20448;-67
2021/07/15 05:51:07;;;;;;;1.90;1.20;;;15.80;98.40;;;;;;5053247;28;20844;-67
2021/07/15 05:53:34;;;;;;;2.13;1.40;;;15.80;98.30;;;;;;5033394;28;20480;-66
2021/07/15 05:56:03;;;;;;;3.90;2.00;;;15.70;99.30;;;;;;5033285;28;20438;-67
2021/07/15 05:58:31;;;;;;;2.70;1.90;;;15.70;99.00;;;;;;5051953;28;20484;-67
2021/07/15 06:01:05;;;;;;;3.40;1.80;;;15.70;99.30;;;;;;5053116;28;20441;-67
2021/07/15 06:03:33;;;;;;;4.40;1.77;;;15.80;99.50;;;;;;5051146;28;20486;-67
2021/07/15 06:06:06;;;;;;;4.07;2.20;;;16.00;99.50;;;;;;5052345;28;20923;-67
2021/07/15 06:08:33;;;;;;;8.57;2.43;;;16.00;99.30;;;;;;5033349;28;20445;-67
2021/07/15 06:11:05;;;;;;;4.23;2.73;;;16.10;99.50;;;;;;5040623;28;20461;-67
2021/07/15 06:13:37;;;;;;;3.50;2.40;;;16.20;99.50;;;;;;5032356;28;20443;-67
2021/07/15 06:16:09;;;;;;;2.97;1.87;;;16.30;99.20;;;;;;5038420;28;21132;-67
2021/07/15 06:18:43;;;;;;;2.40;1.50;;;16.30;99.20;;;;;;5052580;28;20491;-67
2021/07/15 06:21:13;;;;;;;2.60;1.50;;;16.40;98.90;;;;;;5051833;28;20449;-67
2021/07/15 06:23:40;;;;;;;2.27;1.60;;;16.50;99.10;;;;;;5052604;28;20456;-67
2021/07/15 06:26:07;;;;;;;2.40;1.40;;;16.40;98.60;;;;;;5050937;28;20452;-67
2021/07/15 06:28:37;;;;;;;3.13;1.50;;;16.50;99.20;;;;;;5047794;28;20442;-66
2021/07/15 06:31:04;;;;;;;4.60;1.33;;;16.60;98.80;;;;;;5033697;28;20445;-67
2021/07/15 06:33:33;;;;;;;2.37;1.40;;;16.70;98.80;;;;;;5035971;28;20518;-67
2021/07/15 06:36:01;;;;;;;2.50;1.70;;;16.80;99.20;;;;;;5052542;28;20923;-66
2021/07/15 06:38:36;;;;;;;2.47;1.67;;;17.00;99.00;;;;;;5050707;28;20943;-67
2021/07/15 06:41:05;;;;;;;1.87;1.00;;;17.20;98.00;;;;;;5052775;28;20444;-67
2021/07/15 06:43:33;;;;;;;2.00;1.20;;;17.30;98.20;;;;;;5049273;28;20902;-67
2021/07/15 06:46:00;;;;;;;2.27;1.20;;;17.60;98.10;;;;;;5032687;28;20429;-67
2021/07/15 06:48:28;;;;;;;1.83;0.90;;;17.80;97.80;;;;;;5033673;28;20500;-67
2021/07/15 06:50:56;;;;;;;2.20;1.10;;;17.90;96.70;;;;;;5051074;28;20440;-67
2021/07/15 06:53:29;;;;;;;2.73;1.10;;;18.00;97.20;;;;;;5032399;28;20492;-67
2021/07/15 06:55:58;;;;;;;5.20;1.13;;;18.20;96.20;;;;;;5029203;28;20449;-70
2021/07/15 06:58:25;;;;;;;1.83;0.80;;;18.30;95.80;;;;;;5051425;28;20475;-67
2021/07/15 07:00:59;;;;;;;1.70;1.00;;;18.40;95.30;;;;;;5052163;28;20479;-67
2021/07/15 07:03:26;;;;;;;2.07;1.20;;;18.60;95.30;;;;;;5051755;28;20424;-68
2021/07/15 07:05:54;;;;;;;1.97;0.90;;;18.70;95.10;;;;;;5051984;28;20441;-66
2021/07/15 07:08:22;;;;;;;1.73;0.90;;;18.80;94.90;;;;;;5042289;28;20488;-68
2021/07/15 07:10:49;;;;;;;2.83;1.10;;;18.70;93.30;;;;;;5035060;28;20832;-68
2021/07/15 07:13:16;;;;;;;1.90;1.10;;;18.40;93.20;;;;;;5041464;28;20924;-68
2021/07/15 07:15:43;;;;;;;3.90;1.13;;;18.30;93.10;;;;;;5032187;28;20473;-67
2021/07/15 07:18:10;;;;;;;1.93;1.10;;;18.20;94.00;;;;;;5033050;28;20523;-70
2021/07/15 07:20:37;;;;;;;2.00;0.93;;;18.20;94.50;;;;;;5036069;28;20480;-68
2021/07/15 07:23:05;;;;;;;2.20;1.00;;;18.20;94.20;;;;;;5035815;28;20952;-68
2021/07/15 07:25:34;;;;;;;2.47;1.00;;;18.20;94.60;;;;;;5036067;28;20480;-68
2021/07/15 07:28:01;;;;;;;2.37;1.33;;;18.20;94.80;;;;;;5047411;28;20472;-68
2021/07/15 07:30:32;;;;;;;2.90;1.30;;;18.30;95.60;;;;;;5046609;28;20825;-68
2021/07/15 07:32:59;;;;;;;5.73;1.97;;;18.30;95.30;;;;;;5054813;28;20440;-69
2021/07/15 07:35:28;;;;;;;4.47;1.80;;;18.40;95.60;;;;;;5035308;28;20441;-68
2021/07/15 07:37:55;;;;;;;1.80;1.03;;;18.50;95.90;;;;;;5035455;28;20437;-68
2021/07/15 07:40:22;;;;;;;4.40;2.73;;;18.60;96.20;;;;;;5035566;28;20485;-69
2021/07/15 07:42:50;;;;;;;2.43;1.30;;;18.70;96.40;;;;;;5052447;28;20919;-68
2021/07/15 07:45:18;;;;;;;1.93;1.23;;;18.70;96.40;;;;;;5055756;28;20813;-68
2021/07/15 07:47:45;;;;;;;4.87;1.33;;;18.80;96.40;;;;;;5037322;28;20442;-69
2021/07/15 07:50:15;;;;;;;1.83;1.00;;;18.80;96.30;;;;;;5043005;28;20461;-69
2021/07/15 07:52:42;;;;;;;2.00;1.10;;;18.80;96.20;;;;;;5043402;28;20434;-69
2021/07/15 07:55:13;;;;;;;2.50;1.30;;;18.80;96.20;;;;;;5035443;28;20913;-69
2021/07/15 07:57:43;;;;;;;2.00;1.10;;;18.80;96.20;;;;;;5035746;28;20434;-68
2021/07/15 08:00:15;;;;;;;2.13;1.07;;;18.80;96.10;;;;;;5038770;28;20480;-69
2021/07/15 08:02:42;;;;;;;1.90;0.93;;;18.80;95.90;;;;;;5055256;28;20436;-69
2021/07/15 08:05:10;;;;;;;2.43;1.37;;;18.70;96.10;;;;;;5046493;28;20438;-69
2021/07/15 08:07:38;;;;;;;1.87;1.07;;;18.80;95.80;;;;;;5031082;28;20524;-68
2021/07/15 08:10:11;;;;;;;4.77;1.37;;;18.80;95.90;;;;;;5034308;28;20434;-68
2021/07/15 08:12:39;;;;;;;4.50;1.10;;;18.80;96.00;;;;;;5033465;28;20869;-68
2021/07/15 08:15:08;;;;;;;1.93;1.00;;;18.80;96.20;;;;;;5041134;28;20473;-68
2021/07/15 08:17:36;;;;;;;2.47;1.27;;;18.70;96.00;;;;;;5055133;28;20469;-68
2021/07/15 08:20:04;;;;;;;2.63;1.23;;;18.70;95.90;;;;;;5048464;28;20477;-68
2021/07/15 08:22:31;;;;;;;1.77;1.00;;;18.70;96.00;;;;;;5038341;28;20433;-68
2021/07/15 08:24:58;;;;;;;1.83;1.00;;;18.70;96.30;;;;;;5054940;28;20449;-68
2021/07/15 08:27:26;;;;;;;2.67;1.30;;;18.70;96.40;;;;;;5052240;28;20909;-68
2021/07/15 08:29:56;;;;;;;2.53;1.00;;;18.70;96.80;;;;;;5033909;28;20448;-68
2021/07/15 08:32:23;;;;;;;1.83;0.83;;;18.70;96.50;;;;;;5035607;28;20445;-68
2021/07/15 08:34:57;;;;;;;5.10;1.20;;;18.80;96.50;;;;;;5054686;28;20443;-69
2021/07/15 08:37:26;;;;;;;6.33;1.10;;;18.80;96.30;;;;;;5053174;28;20455;-68
2021/07/15 08:39:54;;;;;;;2.23;1.00;;;18.80;96.30;;;;;;5034752;28;20488;-68
2021/07/15 08:42:22;;;;;;;2.17;1.27;;;18.90;96.00;;;;;;5051406;28;20433;-68
2021/07/15 08:44:53;;;;;;;1.90;1.10;;;18.80;96.20;;;;;;5054396;28;20441;-68
2021/07/15 08:47:21;;;;;;;2.10;0.83;;;18.80;95.80;;;;;;5048346;28;20426;-68
2021/07/15 08:49:48;;;;;;;1.90;0.87;;;18.90;95.90;;;;;;5034777;28;20469;-68
2021/07/15 08:52:19;;;;;;;2.70;0.80;;;19.00;95.50;;;;;;5034736;28;20437;-69
2021/07/15 08:54:55;;;;;;;4.00;0.97;;;19.00;95.00;;;;;;5034527;28;20438;-68
2021/07/15 08:57:22;;;;;;;2.37;0.90;;;19.00;94.90;;;;;;5049750;28;20436;-68
2021/07/15 08:59:49;;;;;;;2.57;0.90;;;19.00;94.90;;;;;;5054364;28;20477;-68
2021/07/15 09:02:21;;;;;;;3.27;1.20;;;19.00;94.90;;;;;;5040021;28;20449;-68
2021/07/15 09:04:50;;;;;;;1.93;1.00;;;19.10;94.80;;;;;;5050017;28;20801;-69
2021/07/15 09:07:20;;;;;;;1.80;0.80;;;19.10;94.70;;;;;;5052058;28;20524;-69
2021/07/15 09:09:49;;;;;;;3.63;1.10;;;19.10;94.40;;;;;;5053991;28;20479;-68
2021/07/15 09:12:18;;;;;;;1.67;0.70;;;19.10;94.70;;;;;;5050015;28;20458;-70
2021/07/15 09:14:48;;;;;;;1.80;0.90;;;19.00;94.70;;;;;;5033682;28;20442;-70
2021/07/15 09:17:16;;;;;;;1.73;0.80;;;19.00;94.60;;;;;;5034337;28;20858;-68
2021/07/15 09:19:44;;;;;;;1.97;0.80;;;19.00;94.50;;;;;;5034132;28;20580;-69
2021/07/15 09:22:12;;;;;;;3.80;1.77;;;19.00;94.60;;;;;;5032805;28;20450;-68
2021/07/15 09:24:41;;;;;;;2.83;0.83;;;19.00;94.70;;;;;;5033670;28;20529;-68
2021/07/15 09:27:16;;;;;;;1.60;0.70;;;19.00;94.20;;;;;;5038742;28;20847;-69
2021/07/15 09:29:44;;;;;;;1.70;0.90;;;18.90;94.30;;;;;;5036721;28;20476;-69
2021/07/15 09:32:19;;;;;;;1.97;0.73;;;18.90;94.50;;;;;;5038701;28;20827;-68
2021/07/15 09:37:46;;;;;;;1.60;0.80;;;18.80;94.30;;;;;;5024880;28;20422;-69
2021/07/15 09:40:15;;;;;;;1.60;0.70;;;18.80;94.40;;;;;;5033027;28;20880;-69
2021/07/15 09:42:42;;;;;;;2.80;1.10;;;18.80;94.50;;;;;;5033998;28;20517;-68
2021/07/15 09:45:11;;;;;;;1.80;0.83;;;18.80;94.30;;;;;;5034052;28;20434;-69
2021/07/15 09:47:40;;;;;;;2.80;0.83;;;18.80;94.30;;;;;;5033785;28;20968;-69
2021/07/15 09:50:27;;;;;;;1.77;0.80;;;18.80;94.40;;;;;;5033539;28;20434;-68
2021/07/15 09:52:54;;;;;;;1.90;0.80;;;18.70;94.30;;;;;;5033906;28;20430;-68
2021/07/15 09:55:28;;;;;;;1.73;1.13;;;18.70;94.40;;;;;;5033737;28;20528;-68
2021/07/15 09:58:02;;;;;;;1.60;0.70;;;18.70;94.50;;;;;;5033950;28;20468;-68
2021/07/15 10:00:34;;;;;;;1.67;0.80;;;18.60;94.10;;;;;;5048220;28;20490;-69
2021/07/15 10:03:03;;;;;;;1.90;0.70;;;18.60;93.50;;;;;;5044432;28;20859;-68
2021/07/15 10:05:30;;;;;;;1.67;0.70;;;18.60;93.70;;;;;;5032459;28;20529;-70
2021/07/15 10:08:07;;;;;;;1.60;0.70;;;18.70;93.60;;;;;;5044271;28;20546;-68
2021/07/15 10:10:36;;;;;;;2.03;0.90;;;18.70;92.80;;;;;;5030943;28;20440;-68
2021/07/15 10:13:24;;;;;;;1.50;0.70;;;18.70;93.50;;;;;;5031178;28;20543;-68
2021/07/15 10:15:52;;;;;;;1.50;0.60;;;18.80;92.00;;;;;;5037535;28;20576;-68
2021/07/15 10:18:45;;;;;;;2.20;1.00;;;18.90;92.50;;;;;;5034677;28;20473;-69
2021/07/15 10:21:14;;;;;;;2.00;1.17;;;19.00;93.30;;;;;;5033067;28;21009;-69
2021/07/15 10:23:43;;;;;;;1.60;0.83;;;19.10;93.10;;;;;;5035095;28;20457;-68
2021/07/15 10:26:13;;;;;;;2.30;1.17;;;19.20;93.20;;;;;;5032508;28;20492;-70
2021/07/15 10:28:44;;;;;;;3.37;1.50;;;19.20;92.60;;;;;;5032184;28;20438;-69
2021/07/15 10:31:16;;;;;;;1.70;0.80;;;19.40;93.20;;;;;;5034352;28;20446;-69
2021/07/15 10:33:43;;;;;;;1.70;1.03;;;19.40;91.80;;;;;;5044227;28;20979;-68
2021/07/15 10:36:14;;;;;;;1.70;0.90;;;19.50;91.80;;;;;;5042056;28;20848;-69
2021/07/15 10:38:43;;;;;;;2.03;1.20;;;19.60;91.00;;;;;;5035557;28;20484;-68
2021/07/15 10:41:13;;;;;;;2.10;1.10;;;19.70;91.60;;;;;;5038580;28;20504;-68
2021/07/15 10:43:41;;;;;;;2.47;1.10;;;19.80;92.70;;;;;;5038483;28;20433;-68
2021/07/15 10:46:10;;;;;;;2.00;0.90;;;20.10;92.70;;;;;;5031958;28;20780;-69
2021/07/15 10:48:38;;;;;;;1.93;1.10;;;20.20;92.00;;;;;;5032651;28;20434;-68
2021/07/15 10:51:06;;;;;;;1.80;0.70;;;20.20;90.60;;;;;;5044777;28;20802;-68
2021/07/15 10:53:36;;;;;;;1.90;0.90;;;20.20;90.90;;;;;;5034703;28;20528;-68
2021/07/15 10:56:05;;;;;;;2.00;0.70;;;20.30;91.30;;;;;;5037207;28;20835;-68
2021/07/15 10:58:47;;;;;;;2.00;0.97;;;20.30;91.10;;;;;;5040059;28;20516;-68
2021/07/15 11:01:38;;;;;;;1.73;0.90;;;20.30;91.10;;;;;;5057134;28;20571;-68
2021/07/15 11:04:10;;;;;;;1.80;0.87;;;20.20;91.10;;;;;;5050474;28;20457;-69
2021/07/15 11:06:39;;;;;;;1.80;0.90;;;20.10;91.40;;;;;;5037006;28;20479;-68
2021/07/15 11:09:11;;;;;;;1.80;0.87;;;20.10;91.80;;;;;;5036480;28;20481;-69
2021/07/15 11:11:46;;;;;;;2.30;1.60;;;19.90;90.00;;;;;;5035545;28;20441;-69
2021/07/15 11:14:36;;;;;;;4.23;0.87;;;19.70;90.50;;;;;;5046382;28;20527;-67
2021/07/15 11:17:23;;;;;;;3.00;2.10;;;19.50;90.80;;;;;;5056426;28;20525;-68
2021/07/15 11:20:10;;;;;;;2.40;1.37;;;19.40;91.30;;;;;;5036377;28;20522;-69
2021/07/15 11:22:45;;;;;;;1.73;0.80;;;19.40;91.50;;;;;;5035959;28;20442;-68
2021/07/15 11:25:16;;;;;;;1.83;0.70;;;19.50;91.60;;;;;;5037134;28;20443;-68
2021/07/15 11:27:48;;;;;;;1.40;0.57;;;19.50;91.20;;;;;;5055866;28;20436;-68
2021/07/15 11:30:27;;;;;;;1.60;0.70;;;19.50;92.00;;;;;;5056459;28;20465;-68
2021/07/15 11:33:18;;;;;;;6.10;0.77;;;19.60;91.80;;;;;;5053576;28;20439;-68
2021/07/15 11:35:51;;;;;;;2.90;0.70;;;19.70;91.60;;;;;;5047122;28;20513;-68
2021/07/15 11:38:24;;;;;;;1.80;0.70;;;19.80;91.00;;;;;;5036366;28;20532;-68
2021/07/15 11:41:01;;;;;;;1.80;0.73;;;19.90;91.00;;;;;;5035844;28;20484;-68
2021/07/15 11:43:33;;;;;;;1.80;0.80;;;20.00;90.60;;;;;;5036033;28;20442;-68
2021/07/15 11:46:25;;;;;;;2.60;0.90;;;20.10;91.50;;;;;;5052977;28;20472;-68
2021/07/15 11:49:00;;;;;;;1.57;0.70;;;20.20;91.10;;;;;;5046241;28;21002;-68
2021/07/15 11:51:42;;;;;;;;;;;;;;;;;;;;;
2021/07/15 11:54:47;;;;;;;1.80;0.90;;;20.40;91.20;;;;;;5035601;28;20904;-68
2021/07/15 11:57:29;;;;;;;1.60;0.70;;;20.90;91.00;;;;;;5036289;28;20851;-68
2021/07/15 12:00:15;;;;;;;1.83;1.03;;;21.30;87.80;;;;;;5035695;28;20476;-69
2021/07/15 12:02:46;;;;;;;5.00;2.77;;;21.70;89.60;;;;;;5035809;28;20440;-68
2021/07/15 12:05:28;;;;;;;3.10;1.77;;;21.90;86.50;;;;;;5033885;28;20437;-68
2021/07/15 12:08:07;;;;;;;4.50;2.57;;;21.90;81.90;;;;;;5035495;28;20492;-68
2021/07/15 12:10:36;;;;;;;1.43;0.60;;;21.80;82.00;;;;;;5035813;28;20529;-68
2021/07/15 12:13:05;;;;;;;1.90;0.80;;;21.80;82.60;;;;;;5048430;28;20475;-68
2021/07/15 12:15:33;;;;;;;1.50;0.63;;;21.60;82.90;;;;;;5050634;28;20520;-68
2021/07/15 12:18:08;;;;;;;1.50;0.60;;;21.50;84.30;;;;;;5044807;28;20540;-68
2021/07/15 12:20:41;;;;;;;2.00;0.87;;;21.40;83.40;;;;;;5039909;28;20508;-68
2021/07/15 12:23:14;;;;;;;1.57;0.70;;;21.30;84.40;;;;;;5052676;28;20871;-70
2021/07/15 12:25:42;;;;;;;2.20;0.80;;;21.20;86.90;;;;;;5037068;28;20513;-68
2021/07/15 12:28:16;;;;;;;2.20;0.63;;;21.10;84.50;;;;;;5035685;28;20525;-70
2021/07/15 12:30:46;;;;;;;1.60;0.60;;;21.00;84.80;;;;;;5045648;28;20476;-68
2021/07/15 12:33:16;;;;;;;3.30;1.03;;;21.00;86.00;;;;;;5035278;28;20449;-69
2021/07/15 12:35:45;;;;;;;3.27;1.10;;;21.00;86.40;;;;;;5034638;28;20441;-68
2021/07/15 12:38:25;;;;;;;1.90;1.00;;;20.90;86.50;;;;;;5034083;28;20546;-69
2021/07/15 12:41:06;;;;;;;1.90;1.00;;;20.90;88.00;;;;;;5034459;28;20996;-68
2021/07/15 12:43:45;;;;;;;2.37;0.87;;;20.80;85.70;;;;;;5043057;28;20846;-68
2021/07/15 12:46:16;;;;;;;2.40;0.90;;;20.60;88.60;;;;;;5054501;28;20490;-68
2021/07/15 12:48:46;;;;;;;1.50;0.67;;;20.70;89.60;;;;;;5042746;28;20450;-68
2021/07/15 12:51:15;;;;;;;2.60;0.70;;;20.90;88.30;;;;;;5037694;28;20968;-68
2021/07/15 12:53:46;;;;;;;1.50;0.70;;;21.10;87.40;;;;;;5054416;28;20437;-68
2021/07/15 12:56:18;;;;;;;3.33;0.87;;;21.30;88.50;;;;;;5052189;28;20447;-68
2021/07/15 12:58:56;;;;;;;1.70;0.80;;;21.20;85.60;;;;;;5054201;28;20444;-68
2021/07/15 13:01:24;;;;;;;1.83;0.70;;;21.30;85.70;;;;;;5041813;28;20473;-68
2021/07/15 13:04:06;;;;;;;1.60;0.67;;;21.40;83.60;;;;;;5035012;28;20456;-67
2021/07/15 13:06:35;;;;;;;1.40;0.50;;;21.30;83.10;;;;;;5034070;28;20848;-68
2021/07/15 13:09:14;;;;;;;1.40;0.53;;;21.20;82.00;;;;;;5035268;28;20437;-68
2021/07/15 13:14:29;;;;;;;2.50;0.80;;;21.20;84.70;;;;;;5047610;28;20459;-68
2021/07/15 13:16:57;;;;;;;1.70;0.60;;;21.30;86.00;;;;;;5053579;28;20436;-69
2021/07/15 13:19:28;;;;;;;1.80;0.50;;;21.40;85.30;;;;;;5051967;28;20954;-68
2021/07/15 13:21:55;;;;;;;1.97;0.67;;;21.50;81.30;;;;;;5053589;28;20534;-68
2021/07/15 13:24:27;;;;;;;2.47;1.00;;;21.60;83.00;;;;;;5041432;28;20453;-68